createdAt,value
2019-02-11T19:04:41.100Z,77.79
2019-02-11T19:07:13.280Z,67.79
2019-02-11T19:09:44.990Z,59.51
2019-02-11T19:12:16.588Z,47.00
2019-02-11T19:14:48.236Z,54.59
2019-02-11T19:17:20.400Z,60.28
2019-02-11T19:19:52.666Z,63.81
2019-02-11T19:22:24.265Z,67.05
2019-02-11T19:24:55.941Z,69.19
2019-02-11T19:27:27.515Z,70.52
2019-02-11T19:29:59.194Z,71.50
2019-02-11T19:32:30.859Z,71.89
2019-02-11T19:35:02.535Z,72.67
2019-02-11T19:37:34.257Z,73.23
2019-02-11T19:40:06.349Z,73.54
2019-02-11T19:42:38.081Z,72.90
2019-02-11T19:45:11.390Z,73.77
2019-02-11T19:47:43.357Z,73.41
2019-02-11T19:50:16.156Z,72.93
2019-02-11T19:52:48.173Z,72.53
2019-02-11T19:55:20.134Z,72.76
2019-02-11T19:57:59.935Z,72.45
2019-02-11T20:00:31.967Z,72.47
2019-02-11T20:03:03.683Z,72.59
2019-02-11T20:05:36.347Z,72.53
2019-02-11T20:08:08.058Z,71.46
2019-02-11T20:10:39.785Z,71.81
2019-02-11T20:13:11.525Z,71.62
2019-02-11T20:15:43.214Z,71.31
2019-02-11T20:18:17.023Z,71.04
2019-02-11T20:20:48.848Z,70.41
2019-02-11T20:23:20.766Z,70.66
2019-02-11T20:25:52.647Z,71.08
2019-02-11T20:28:24.715Z,70.84
2019-02-11T20:31:00.404Z,71.11
2019-02-11T20:33:32.934Z,71.12
2019-02-11T20:36:04.932Z,71.69
2019-02-11T20:38:36.635Z,72.40
2019-02-11T20:41:10.321Z,72.81
2019-02-11T20:43:42.029Z,73.10
2019-02-11T20:46:13.997Z,73.11
2019-02-11T20:48:45.903Z,72.98
2019-02-11T20:51:18.597Z,72.85
2019-02-11T20:53:50.287Z,72.28
2019-02-11T20:56:25.687Z,72.30
2019-02-11T20:58:57.689Z,72.41
2019-02-11T21:01:30.732Z,72.38
2019-02-11T21:04:03.531Z,72.16
2019-02-11T21:06:35.236Z,72.98
2019-02-11T21:09:07.229Z,73.08
2019-02-11T21:11:39.019Z,73.58
2019-02-11T21:14:10.963Z,73.08
2019-02-11T21:16:44.182Z,72.67
2019-02-11T21:19:15.891Z,71.64
2019-02-11T21:21:49.114Z,71.71
2019-02-11T21:24:22.427Z,71.29
2019-02-11T21:26:56.120Z,71.17
2019-02-11T21:29:29.720Z,70.65
2019-02-11T21:32:03.283Z,69.82
2019-02-11T21:34:35.286Z,69.43
2019-02-11T21:37:08.109Z,68.35
2019-02-11T21:39:39.852Z,67.42
2019-02-11T21:42:11.554Z,66.92
2019-02-11T21:44:43.529Z,66.76
2019-02-11T21:47:18.732Z,65.58
2019-02-11T21:49:52.447Z,65.49
2019-02-11T21:52:24.149Z,64.02
2019-02-11T21:54:56.391Z,64.12
2019-02-11T21:57:29.488Z,64.46
2019-02-11T22:00:02.654Z,63.26
2019-02-11T22:02:36.586Z,62.79
2019-02-11T22:05:08.535Z,63.14
2019-02-11T22:07:40.673Z,63.25
2019-02-11T22:10:14.044Z,62.71
2019-02-11T22:12:45.795Z,62.47
2019-02-11T22:15:17.535Z,62.04
2019-02-11T22:17:49.264Z,62.36
2019-02-11T22:20:20.959Z,62.81
2019-02-11T22:22:54.004Z,61.30
2019-02-11T22:25:25.848Z,61.80
2019-02-11T22:27:57.511Z,61.82
2019-02-11T22:30:29.121Z,61.93
2019-02-11T22:33:01.694Z,61.77
2019-02-11T22:35:33.370Z,61.26
2019-02-11T22:38:04.960Z,61.95
2019-02-11T22:40:36.616Z,61.98
2019-02-11T22:43:08.260Z,61.60
2019-02-11T22:45:41.330Z,62.19
2019-02-11T22:48:13.011Z,62.01
2019-02-11T22:50:44.681Z,62.29
2019-02-11T22:53:16.269Z,61.99
2019-02-11T22:55:47.950Z,62.18
2019-02-11T22:58:19.702Z,62.84
2019-02-11T23:01:05.231Z,62.45
2019-02-11T23:03:37.179Z,62.35
2019-02-11T23:06:08.829Z,62.16
2019-02-11T23:08:40.479Z,62.67
2019-02-11T23:11:12.045Z,62.53
2019-02-11T23:13:43.621Z,62.71
2019-02-11T23:16:15.252Z,63.52
2019-02-11T23:18:46.905Z,63.16
2019-02-11T23:21:18.603Z,63.59
2019-02-11T23:23:50.198Z,63.95
2019-02-11T23:26:22.108Z,64.05
2019-02-11T23:28:53.921Z,64.54
2019-02-11T23:31:25.883Z,64.79
2019-02-11T23:33:57.549Z,65.01
2019-02-11T23:36:29.223Z,65.20
2019-02-11T23:39:00.842Z,65.51
2019-02-11T23:41:34.112Z,65.41
2019-02-11T23:44:05.735Z,65.69
2019-02-11T23:46:37.348Z,66.04
2019-02-11T23:49:08.938Z,66.27
2019-02-11T23:51:41.102Z,66.33
2019-02-11T23:54:12.782Z,66.69
2019-02-11T23:56:44.413Z,66.60
2019-02-11T23:59:15.986Z,66.70
